sensor_id;sensor_type;location;lat;lon;timestamp;pressure;altitude;pressure_sealevel;temperature;humidity
9523;BME280;63165;43.016;25.784;2023-03-03T00:00:50;100363.31;;;8.05;89.70
9523;BME280;63165;43.016;25.784;2023-03-03T00:03:20;100363.31;;;8.06;89.92
9523;BME280;63165;43.016;25.784;2023-03-03T00:05:49;100368.50;;;8.08;89.97
9523;BME280;63165;43.016;25.784;2023-03-03T00:08:17;100359.81;;;8.07;90.35
9523;BME280;63165;43.016;25.784;2023-03-03T00:10:44;100365.03;;;8.07;89.95
9523;BME280;63165;43.016;25.784;2023-03-03T00:13:14;100356.38;;;8.07;90.24
9523;BME280;63165;43.016;25.784;2023-03-03T00:15:42;100347.69;;;8.05;90.35
9523;BME280;63165;43.016;25.784;2023-03-03T00:18:27;100350.28;;;8.03;90.60
9523;BME280;63165;43.016;25.784;2023-03-03T00:20:57;100348.53;;;8.05;90.55
9523;BME280;63165;43.016;25.784;2023-03-03T00:23:33;100338.13;;;8.05;90.79
9523;BME280;63165;43.016;25.784;2023-03-03T00:26:03;100333.78;;;8.04;90.33
9523;BME280;63165;43.016;25.784;2023-03-03T00:28:44;100328.59;;;8.03;90.60
9523;BME280;63165;43.016;25.784;2023-03-03T00:31:15;100328.56;;;8.01;90.84
9523;BME280;63165;43.016;25.784;2023-03-03T00:33:48;100328.56;;;8.00;90.17
9523;BME280;63165;43.016;25.784;2023-03-03T00:36:30;100323.38;;;7.93;90.36
9523;BME280;63165;43.016;25.784;2023-03-03T00:39:17;100325.97;;;7.98;90.80
9523;BME280;63165;43.016;25.784;2023-03-03T00:41:44;100322.50;;;7.97;90.58
9523;BME280;63165;43.016;25.784;2023-03-03T00:44:40;100326.84;;;7.95;90.88
9523;BME280;63165;43.016;25.784;2023-03-03T00:47:23;100317.28;;;7.94;91.21
9523;BME280;63165;43.016;25.784;2023-03-03T00:49:53;100303.41;;;7.85;91.12
9523;BME280;63165;43.016;25.784;2023-03-03T00:52:23;100311.22;;;7.95;91.10
9523;BME280;63165;43.016;25.784;2023-03-03T00:54:54;100312.06;;;7.94;91.06
9523;BME280;63165;43.016;25.784;2023-03-03T00:57:21;100315.56;;;7.95;90.95
9523;BME280;63165;43.016;25.784;2023-03-03T00:59:48;100293.00;;;7.88;91.24
9523;BME280;63165;43.016;25.784;2023-03-03T01:02:16;100304.25;;;7.96;91.43
9523;BME280;63165;43.016;25.784;2023-03-03T01:04:47;100299.94;;;7.95;91.26
9523;BME280;63165;43.016;25.784;2023-03-03T01:07:18;100302.50;;;7.96;91.15
9523;BME280;63165;43.016;25.784;2023-03-03T01:09:45;100290.41;;;7.89;91.01
9523;BME280;63165;43.016;25.784;2023-03-03T01:12:13;100295.59;;;7.94;91.03
9523;BME280;63165;43.016;25.784;2023-03-03T01:14:42;100286.91;;;7.92;90.63
9523;BME280;63165;43.016;25.784;2023-03-03T01:17:10;100292.97;;;7.91;90.74
9523;BME280;63165;43.016;25.784;2023-03-03T01:19:38;100280.84;;;7.88;90.68
9523;BME280;63165;43.016;25.784;2023-03-03T01:22:05;100285.16;;;7.92;91.26
9523;BME280;63165;43.016;25.784;2023-03-03T01:24:34;100282.56;;;7.91;90.79
9523;BME280;63165;43.016;25.784;2023-03-03T01:27:02;100279.97;;;7.88;90.86
9523;BME280;63165;43.016;25.784;2023-03-03T01:29:29;100278.22;;;7.87;90.55
9523;BME280;63165;43.016;25.784;2023-03-03T01:31:57;100283.44;;;7.87;90.31
9523;BME280;63165;43.016;25.784;2023-03-03T01:34:24;100276.50;;;7.81;89.83
9523;BME280;63165;43.016;25.784;2023-03-03T01:36:52;100279.97;;;7.77;90.22
9523;BME280;63165;43.016;25.784;2023-03-03T01:39:19;100275.66;;;7.74;90.77
9523;BME280;63165;43.016;25.784;2023-03-03T01:41:48;100276.50;;;7.72;90.91
9523;BME280;63165;43.016;25.784;2023-03-03T01:44:16;100263.53;;;7.60;91.31
9523;BME280;63165;43.016;25.784;2023-03-03T01:46:47;100268.72;;;7.64;91.54
9523;BME280;63165;43.016;25.784;2023-03-03T01:49:21;100271.31;;;7.63;91.65
9523;BME280;63165;43.016;25.784;2023-03-03T01:51:52;100268.69;;;7.61;92.27
9523;BME280;63165;43.016;25.784;2023-03-03T01:54:24;100252.22;;;7.51;91.63
9523;BME280;63165;43.016;25.784;2023-03-03T01:56:58;100265.25;;;7.61;92.20
9523;BME280;63165;43.016;25.784;2023-03-03T01:59:29;100265.25;;;7.61;91.97
9523;BME280;63165;43.016;25.784;2023-03-03T02:01:58;100266.97;;;7.60;91.88
9523;BME280;63165;43.016;25.784;2023-03-03T02:04:26;100272.16;;;7.65;91.28
9523;BME280;63165;43.016;25.784;2023-03-03T02:06:56;100273.06;;;7.64;90.84
9523;BME280;63165;43.016;25.784;2023-03-03T02:09:31;100270.47;;;7.65;90.79
9523;BME280;63165;43.016;25.784;2023-03-03T02:12:06;100277.38;;;7.66;91.17
9523;BME280;63165;43.016;25.784;2023-03-03T02:14:34;100276.53;;;7.69;91.20
9523;BME280;63165;43.016;25.784;2023-03-03T02:17:02;100266.97;;;7.69;90.81
9523;BME280;63165;43.016;25.784;2023-03-03T02:19:35;100274.78;;;7.68;90.90
9523;BME280;63165;43.016;25.784;2023-03-03T02:22:06;100265.22;;;7.67;90.21
9523;BME280;63165;43.016;25.784;2023-03-03T02:24:39;100267.84;;;7.62;90.05
9523;BME280;63165;43.016;25.784;2023-03-03T02:27:10;100271.31;;;7.61;89.66
9523;BME280;63165;43.016;25.784;2023-03-03T02:29:39;100260.91;;;7.56;89.97
9523;BME280;63165;43.016;25.784;2023-03-03T02:32:06;100262.66;;;7.57;89.62
9523;BME280;63165;43.016;25.784;2023-03-03T02:34:45;100271.34;;;7.60;90.05
9523;BME280;63165;43.016;25.784;2023-03-03T02:37:13;100275.66;;;7.59;90.08
9523;BME280;63165;43.016;25.784;2023-03-03T02:39:42;100276.53;;;7.60;90.09
9523;BME280;63165;43.016;25.784;2023-03-03T02:42:13;100277.41;;;7.60;90.04
9523;BME280;63165;43.016;25.784;2023-03-03T02:44:41;100265.25;;;7.53;89.85
9523;BME280;63165;43.016;25.784;2023-03-03T02:47:08;100266.13;;;7.44;89.83
9523;BME280;63165;43.016;25.784;2023-03-03T02:49:36;100265.25;;;7.57;89.08
9523;BME280;63165;43.016;25.784;2023-03-03T02:52:06;100269.59;;;7.57;89.40
9523;BME280;63165;43.016;25.784;2023-03-03T02:54:35;100267.88;;;7.56;89.16
9523;BME280;63165;43.016;25.784;2023-03-03T02:57:04;100268.72;;;7.56;89.10
9523;BME280;63165;43.016;25.784;2023-03-03T02:59:35;100267.88;;;7.56;88.93
9523;BME280;63165;43.016;25.784;2023-03-03T03:02:02;100273.94;;;7.55;89.47
9523;BME280;63165;43.016;25.784;2023-03-03T03:04:30;100273.06;;;7.57;89.01
9523;BME280;63165;43.016;25.784;2023-03-03T03:06:57;100270.47;;;7.57;89.32
9523;BME280;63165;43.016;25.784;2023-03-03T03:09:25;100277.41;;;7.58;89.22
9523;BME280;63165;43.016;25.784;2023-03-03T03:11:53;100269.59;;;7.58;89.59
9523;BME280;63165;43.016;25.784;2023-03-03T03:14:21;100268.69;;;7.61;89.32
9523;BME280;63165;43.016;25.784;2023-03-03T03:16:51;100266.97;;;7.60;89.48
9523;BME280;63165;43.016;25.784;2023-03-03T03:19:18;100270.44;;;7.61;89.59
9523;BME280;63165;43.016;25.784;2023-03-03T03:21:46;100259.19;;;7.63;89.49
9523;BME280;63165;43.016;25.784;2023-03-03T03:24:13;100258.28;;;7.64;89.31
9523;BME280;63165;43.016;25.784;2023-03-03T03:26:40;100254.81;;;7.62;89.25
9523;BME280;63165;43.016;25.784;2023-03-03T03:29:07;100256.56;;;7.63;89.25
9523;BME280;63165;43.016;25.784;2023-03-03T03:31:35;100265.22;;;7.67;89.05
9523;BME280;63165;43.016;25.784;2023-03-03T03:34:05;100253.94;;;7.68;88.85
9523;BME280;63165;43.016;25.784;2023-03-03T03:36:32;100252.19;;;7.67;88.81
9523;BME280;63165;43.016;25.784;2023-03-03T03:38:59;100259.16;;;7.71;88.57
9523;BME280;63165;43.016;25.784;2023-03-03T03:41:27;100251.34;;;7.71;88.74
9523;BME280;63165;43.016;25.784;2023-03-03T03:43:54;100261.78;;;7.71;88.73
9523;BME280;63165;43.016;25.784;2023-03-03T03:46:22;100244.44;;;7.56;88.78
9523;BME280;63165;43.016;25.784;2023-03-03T03:48:49;100253.94;;;7.66;89.12
9523;BME280;63165;43.016;25.784;2023-03-03T03:51:18;100245.28;;;7.64;89.42
9523;BME280;63165;43.016;25.784;2023-03-03T03:53:46;100253.94;;;7.65;89.17
9523;BME280;63165;43.016;25.784;2023-03-03T03:56:13;100250.47;;;7.63;89.12
9523;BME280;63165;43.016;25.784;2023-03-03T03:58:41;100245.28;;;7.63;89.05
9523;BME280;63165;43.016;25.784;2023-03-03T04:01:09;100236.59;;;7.59;89.32
9523;BME280;63165;43.016;25.784;2023-03-03T04:03:36;100238.34;;;7.63;89.15
9523;BME280;63165;43.016;25.784;2023-03-03T04:06:04;100239.19;;;7.62;89.39
9523;BME280;63165;43.016;25.784;2023-03-03T04:08:34;100240.94;;;7.62;89.48
9523;BME280;63165;43.016;25.784;2023-03-03T04:11:01;100238.34;;;7.62;89.37
9523;BME280;63165;43.016;25.784;2023-03-03T04:13:29;100240.94;;;7.62;88.92
9523;BME280;63165;43.016;25.784;2023-03-03T04:15:59;100237.44;;;7.61;89.33
9523;BME280;63165;43.016;25.784;2023-03-03T04:18:27;100228.81;;;7.54;89.33
9523;BME280;63165;43.016;25.784;2023-03-03T04:20:54;100234.84;;;7.63;89.49
9523;BME280;63165;43.016;25.784;2023-03-03T04:23:22;100230.53;;;7.57;89.58
9523;BME280;63165;43.016;25.784;2023-03-03T04:25:51;100229.66;;;7.56;89.44
9523;BME280;63165;43.016;25.784;2023-03-03T04:28:19;100238.34;;;7.58;89.17
9523;BME280;63165;43.016;25.784;2023-03-03T04:30:46;100233.13;;;7.55;88.69
9523;BME280;63165;43.016;25.784;2023-03-03T04:33:14;100240.09;;;7.56;88.74
9523;BME280;63165;43.016;25.784;2023-03-03T04:35:43;100238.34;;;7.58;88.77
9523;BME280;63165;43.016;25.784;2023-03-03T04:38:10;100234.88;;;7.58;88.74
9523;BME280;63165;43.016;25.784;2023-03-03T04:40:39;100240.06;;;7.53;88.40
9523;BME280;63165;43.016;25.784;2023-03-03T04:43:09;100233.13;;;7.46;88.94
9523;BME280;63165;43.016;25.784;2023-03-03T04:45:36;100238.34;;;7.49;88.89
9523;BME280;63165;43.016;25.784;2023-03-03T04:48:04;100229.66;;;7.46;88.50
9523;BME280;63165;43.016;25.784;2023-03-03T04:50:31;100243.56;;;7.52;88.82
9523;BME280;63165;43.016;25.784;2023-03-03T04:52:59;100243.56;;;7.51;88.83
9523;BME280;63165;43.016;25.784;2023-03-03T04:55:26;100238.34;;;7.49;89.05
9523;BME280;63165;43.016;25.784;2023-03-03T04:57:54;100249.66;;;7.48;88.99
9523;BME280;63165;43.016;25.784;2023-03-03T05:00:23;100251.34;;;7.46;89.18
9523;BME280;63165;43.016;25.784;2023-03-03T05:02:50;100251.38;;;7.45;89.05
9523;BME280;63165;43.016;25.784;2023-03-03T05:05:17;100260.06;;;7.45;89.21
9523;BME280;63165;43.016;25.784;2023-03-03T05:07:44;100258.31;;;7.47;89.60
9523;BME280;63165;43.016;25.784;2023-03-03T05:10:12;100257.47;;;7.48;89.59
9523;BME280;63165;43.016;25.784;2023-03-03T05:12:39;100247.91;;;7.46;89.36
9523;BME280;63165;43.016;25.784;2023-03-03T05:15:07;100266.13;;;7.50;89.03
9523;BME280;63165;43.016;25.784;2023-03-03T05:17:36;100262.63;;;7.51;89.04
9523;BME280;63165;43.016;25.784;2023-03-03T05:20:04;100260.91;;;7.49;89.06
9523;BME280;63165;43.016;25.784;2023-03-03T05:22:33;100253.97;;;7.43;88.49
9523;BME280;63165;43.016;25.784;2023-03-03T05:25:00;100257.47;;;7.37;88.55
9523;BME280;63165;43.016;25.784;2023-03-03T05:27:27;100266.13;;;7.41;88.73
9523;BME280;63165;43.016;25.784;2023-03-03T05:29:54;100258.31;;;7.39;88.94
9523;BME280;63165;43.016;25.784;2023-03-03T05:32:22;100264.41;;;7.37;89.24
9523;BME280;63165;43.016;25.784;2023-03-03T05:34:50;100246.16;;;7.29;89.79
9523;BME280;63165;43.016;25.784;2023-03-03T05:37:18;100255.72;;;7.32;89.65
9523;BME280;63165;43.016;25.784;2023-03-03T05:39:45;100253.13;;;7.26;89.85
9523;BME280;63165;43.016;25.784;2023-03-03T05:42:13;100259.16;;;7.29;90.67
9523;BME280;63165;43.016;25.784;2023-03-03T05:44:41;100259.16;;;7.29;90.53
9523;BME280;63165;43.016;25.784;2023-03-03T05:47:09;100263.50;;;7.29;90.60
9523;BME280;63165;43.016;25.784;2023-03-03T05:49:36;100260.94;;;7.26;90.83
9523;BME280;63165;43.016;25.784;2023-03-03T05:52:05;100259.19;;;7.34;91.03
9523;BME280;63165;43.016;25.784;2023-03-03T05:54:34;100254.00;;;7.35;90.74
9523;BME280;63165;43.016;25.784;2023-03-03T05:57:02;100262.66;;;7.36;90.68
9523;BME280;63165;43.016;25.784;2023-03-03T05:59:29;100265.25;;;7.37;90.93
9523;BME280;63165;43.016;25.784;2023-03-03T06:01:56;100275.69;;;7.39;90.84
9523;BME280;63165;43.016;25.784;2023-03-03T06:04:23;100265.25;;;7.42;90.46
9523;BME280;63165;43.016;25.784;2023-03-03T06:06:51;100270.47;;;7.44;90.45
9523;BME280;63165;43.016;25.784;2023-03-03T06:09:19;100270.47;;;7.44;90.26
9523;BME280;63165;43.016;25.784;2023-03-03T06:11:47;100275.66;;;7.42;89.40
9523;BME280;63165;43.016;25.784;2023-03-03T06:14:14;100271.34;;;7.43;89.55
9523;BME280;63165;43.016;25.784;2023-03-03T06:16:41;100273.94;;;7.39;88.97
9523;BME280;63165;43.016;25.784;2023-03-03T06:19:08;100276.53;;;7.38;88.81
9523;BME280;63165;43.016;25.784;2023-03-03T06:21:36;100272.19;;;7.32;89.34
9523;BME280;63165;43.016;25.784;2023-03-03T06:24:03;100267.88;;;7.39;89.20
9523;BME280;63165;43.016;25.784;2023-03-03T06:26:32;100267.88;;;7.39;88.93
9523;BME280;63165;43.016;25.784;2023-03-03T06:28:59;100274.78;;;7.40;89.38
9523;BME280;63165;43.016;25.784;2023-03-03T06:31:27;100275.69;;;7.37;88.97
9523;BME280;63165;43.016;25.784;2023-03-03T06:33:54;100272.22;;;7.37;89.29
9523;BME280;63165;43.016;25.784;2023-03-03T06:36:22;100280.03;;;7.37;89.25
9523;BME280;63165;43.016;25.784;2023-03-03T06:38:50;100276.53;;;7.39;89.18
9523;BME280;63165;43.016;25.784;2023-03-03T06:41:17;100276.53;;;7.44;89.41
9523;BME280;63165;43.016;25.784;2023-03-03T06:43:46;100272.19;;;7.48;89.47
9523;BME280;63165;43.016;25.784;2023-03-03T06:46:13;100286.06;;;7.50;89.33
9523;BME280;63165;43.016;25.784;2023-03-03T06:48:41;100279.16;;;7.50;88.80
9523;BME280;63165;43.016;25.784;2023-03-03T06:51:19;100280.00;;;7.51;88.89
9523;BME280;63165;43.016;25.784;2023-03-03T06:53:49;100283.47;;;7.53;88.99
9523;BME280;63165;43.016;25.784;2023-03-03T06:56:18;100280.88;;;7.56;89.06
9523;BME280;63165;43.016;25.784;2023-03-03T06:58:47;100276.53;;;7.60;88.91
9523;BME280;63165;43.016;25.784;2023-03-03T07:01:16;100279.13;;;7.61;88.82
9523;BME280;63165;43.016;25.784;2023-03-03T07:03:43;100267.00;;;7.54;88.63
9523;BME280;63165;43.016;25.784;2023-03-03T07:06:20;100272.19;;;7.57;88.59
9523;BME280;63165;43.016;25.784;2023-03-03T07:08:47;100275.66;;;7.65;88.77
9523;BME280;63165;43.016;25.784;2023-03-03T07:11:17;100273.03;;;7.70;88.83
9523;BME280;63165;43.016;25.784;2023-03-03T07:13:49;100273.06;;;7.73;89.26
9523;BME280;63165;43.016;25.784;2023-03-03T07:16:18;100267.81;;;7.77;88.95
9523;BME280;63165;43.016;25.784;2023-03-03T07:18:49;100265.22;;;7.82;88.67
9523;BME280;63165;43.016;25.784;2023-03-03T07:21:19;100265.19;;;7.87;88.23
9523;BME280;63165;43.016;25.784;2023-03-03T07:23:48;100261.75;;;7.89;88.22
9523;BME280;63165;43.016;25.784;2023-03-03T07:26:17;100253.03;;;7.93;87.99
9523;BME280;63165;43.016;25.784;2023-03-03T07:28:52;100257.38;;;7.97;87.90
9523;BME280;63165;43.016;25.784;2023-03-03T07:31:29;100258.22;;;7.98;87.57
9523;BME280;63165;43.016;25.784;2023-03-03T07:33:59;100251.25;;;8.02;87.15
9523;BME280;63165;43.016;25.784;2023-03-03T07:36:28;100254.72;;;8.05;87.11
9523;BME280;63165;43.016;25.784;2023-03-03T07:38:58;100246.91;;;8.10;86.91
9523;BME280;63165;43.016;25.784;2023-03-03T07:41:27;100249.50;;;8.14;86.53
9523;BME280;63165;43.016;25.784;2023-03-03T07:44:04;100252.94;;;8.16;85.92
9523;BME280;63165;43.016;25.784;2023-03-03T07:46:35;100252.09;;;8.18;86.22
9523;BME280;63165;43.016;25.784;2023-03-03T07:49:16;100234.75;;;8.09;85.37
9523;BME280;63165;43.016;25.784;2023-03-03T07:51:46;100243.41;;;8.09;85.35
9523;BME280;63165;43.016;25.784;2023-03-03T07:54:20;100250.34;;;8.18;85.32
9523;BME280;63165;43.016;25.784;2023-03-03T07:56:55;100249.50;;;8.13;84.84
9523;BME280;63165;43.016;25.784;2023-03-03T07:59:25;100246.91;;;8.10;84.98
9523;BME280;63165;43.016;25.784;2023-03-03T08:01:54;100232.13;;;8.07;84.99
9523;BME280;63165;43.016;25.784;2023-03-03T08:04:27;100236.50;;;8.08;85.17
9523;BME280;63165;43.016;25.784;2023-03-03T08:06:55;100230.41;;;8.02;84.98
9523;BME280;63165;43.016;25.784;2023-03-03T08:09:42;100240.84;;;8.05;84.85
9523;BME280;63165;43.016;25.784;2023-03-03T08:12:20;100232.13;;;8.07;85.33
9523;BME280;63165;43.016;25.784;2023-03-03T08:14:53;100233.88;;;8.07;84.63
9523;BME280;63165;43.016;25.784;2023-03-03T08:17:23;100239.09;;;8.10;85.26
9523;BME280;63165;43.016;25.784;2023-03-03T08:19:52;100233.00;;;8.14;85.17
9523;BME280;63165;43.016;25.784;2023-03-03T08:22:26;100218.25;;;8.10;84.46
9523;BME280;63165;43.016;25.784;2023-03-03T08:24:56;100231.25;;;8.16;84.29
9523;BME280;63165;43.016;25.784;2023-03-03T08:27:23;100213.88;;;8.20;84.39
9523;BME280;63165;43.016;25.784;2023-03-03T08:29:52;100226.00;;;8.22;84.65
9523;BME280;63165;43.016;25.784;2023-03-03T08:32:19;100224.25;;;8.23;84.01
9523;BME280;63165;43.016;25.784;2023-03-03T08:34:47;100213.88;;;8.21;84.18
9523;BME280;63165;43.016;25.784;2023-03-03T08:37:14;100194.72;;;8.19;84.43
9523;BME280;63165;43.016;25.784;2023-03-03T08:39:42;100219.03;;;8.30;84.09
9523;BME280;63165;43.016;25.784;2023-03-03T08:42:09;100212.06;;;8.32;84.05
9523;BME280;63165;43.016;25.784;2023-03-03T08:44:36;100215.53;;;8.31;83.87
9523;BME280;63165;43.016;25.784;2023-03-03T08:47:05;100217.25;;;8.40;84.24
9523;BME280;63165;43.016;25.784;2023-03-03T08:49:33;100199.03;;;8.42;84.35
9523;BME280;63165;43.016;25.784;2023-03-03T08:52:00;100214.59;;;8.52;84.13
9523;BME280;63165;43.016;25.784;2023-03-03T08:54:27;100214.56;;;8.57;84.29
9523;BME280;63165;43.016;25.784;2023-03-03T08:56:55;100208.41;;;8.67;84.57
9523;BME280;63165;43.016;25.784;2023-03-03T08:59:22;100213.63;;;8.70;84.01
9523;BME280;63165;43.016;25.784;2023-03-03T09:01:49;100218.81;;;8.73;83.49
9523;BME280;63165;43.016;25.784;2023-03-03T09:04:18;100209.19;;;8.80;83.13
9523;BME280;63165;43.016;25.784;2023-03-03T09:06:46;100203.94;;;8.88;83.34
9523;BME280;63165;43.016;25.784;2023-03-03T09:09:13;100206.50;;;8.94;82.95
9523;BME280;63165;43.016;25.784;2023-03-03T09:11:40;100208.16;;;9.06;83.06
9523;BME280;63165;43.016;25.784;2023-03-03T09:14:11;100199.41;;;9.10;82.65
9523;BME280;63165;43.016;25.784;2023-03-03T09:16:40;100204.56;;;9.19;82.18
9523;BME280;63165;43.016;25.784;2023-03-03T09:19:23;100207.09;;;9.25;82.17
9523;BME280;63165;43.016;25.784;2023-03-03T09:21:52;100193.13;;;9.31;81.86
9523;BME280;63165;43.016;25.784;2023-03-03T09:24:24;100193.13;;;9.32;81.45
9523;BME280;63165;43.016;25.784;2023-03-03T09:26:52;100193.94;;;9.38;80.83
9523;BME280;63165;43.016;25.784;2023-03-03T09:29:26;100191.28;;;9.42;80.86
9523;BME280;63165;43.016;25.784;2023-03-03T09:31:55;100182.47;;;9.54;80.92
9523;BME280;63165;43.016;25.784;2023-03-03T09:34:36;100186.69;;;9.69;80.99
9523;BME280;63165;43.016;25.784;2023-03-03T09:37:17;100177.84;;;9.79;80.42
9523;BME280;63165;43.016;25.784;2023-03-03T09:39:47;100183.03;;;9.84;79.32
9523;BME280;63165;43.016;25.784;2023-03-03T09:42:42;100187.41;;;9.80;78.90
9523;BME280;63165;43.016;25.784;2023-03-03T09:45:35;100185.63;;;9.84;78.27
9523;BME280;63165;43.016;25.784;2023-03-03T09:48:26;100171.53;;;9.97;78.50
9523;BME280;63165;43.016;25.784;2023-03-03T09:51:17;100171.47;;;10.02;77.61
9523;BME280;63165;43.016;25.784;2023-03-03T09:54:03;100179.19;;;10.11;77.93
9523;BME280;63165;43.016;25.784;2023-03-03T09:56:37;100175.63;;;10.18;78.23
9523;BME280;63165;43.016;25.784;2023-03-03T09:59:20;100179.88;;;10.27;77.51
9523;BME280;63165;43.016;25.784;2023-03-03T10:01:56;100163.28;;;10.31;77.48
9523;BME280;63165;43.016;25.784;2023-03-03T10:04:49;100166.53;;;10.48;77.18
9523;BME280;63165;43.016;25.784;2023-03-03T10:07:33;100169.09;;;10.52;76.63
9523;BME280;63165;43.016;25.784;2023-03-03T10:10:16;100162.06;;;10.55;76.06
9523;BME280;63165;43.016;25.784;2023-03-03T10:12:53;100154.28;;;10.51;75.55
9523;BME280;63165;43.016;25.784;2023-03-03T10:15:33;100148.72;;;10.74;75.43
9523;BME280;63165;43.016;25.784;2023-03-03T10:18:12;100150.53;;;10.70;74.43
9523;BME280;63165;43.016;25.784;2023-03-03T10:20:50;100147.09;;;10.66;74.70
9523;BME280;63165;43.016;25.784;2023-03-03T10:23:30;100134.88;;;10.65;73.91
9523;BME280;63165;43.016;25.784;2023-03-03T10:26:15;100136.63;;;10.65;74.05
9523;BME280;63165;43.016;25.784;2023-03-03T10:28:55;100135.66;;;10.72;74.28
9523;BME280;63165;43.016;25.784;2023-03-03T10:31:37;100132.88;;;10.83;74.10
9523;BME280;63165;43.016;25.784;2023-03-03T10:34:19;100125.78;;;10.88;74.07
9523;BME280;63165;43.016;25.784;2023-03-03T10:36:54;100121.34;;;10.93;73.29
9523;BME280;63165;43.016;25.784;2023-03-03T10:39:43;100116.97;;;10.92;72.41
9523;BME280;63165;43.016;25.784;2023-03-03T10:42:24;100109.13;;;10.92;72.84
9523;BME280;63165;43.016;25.784;2023-03-03T10:45:24;100116.00;;;10.98;72.86
9523;BME280;63165;43.016;25.784;2023-03-03T10:48:11;100102.69;;;11.13;72.78
9523;BME280;63165;43.016;25.784;2023-03-03T10:50:50;100099.13;;;11.16;72.25
9523;BME280;63165;43.016;25.784;2023-03-03T10:53:28;100095.50;;;11.23;71.88
9523;BME280;63165;43.016;25.784;2023-03-03T10:56:10;100086.81;;;11.21;71.62
9523;BME280;63165;43.016;25.784;2023-03-03T10:58:55;100076.06;;;11.35;70.91
9523;BME280;63165;43.016;25.784;2023-03-03T11:01:33;100068.22;;;11.33;71.08
9523;BME280;63165;43.016;25.784;2023-03-03T11:04:30;100067.38;;;11.33;70.17
9523;BME280;63165;43.016;25.784;2023-03-03T11:07:06;100081.13;;;11.44;70.52
9523;BME280;63165;43.016;25.784;2023-03-03T11:12:46;100071.97;;;11.65;69.88
9523;BME280;63165;43.016;25.784;2023-03-03T11:15:32;100062.28;;;11.69;70.39
9523;BME280;63165;43.016;25.784;2023-03-03T11:18:14;100058.72;;;11.73;69.52
9523;BME280;63165;43.016;25.784;2023-03-03T11:20:46;100060.25;;;11.83;69.20
9523;BME280;63165;43.016;25.784;2023-03-03T11:23:49;100056.75;;;11.82;69.22
9523;BME280;63165;43.016;25.784;2023-03-03T11:26:28;100061.09;;;11.83;69.09
9523;BME280;63165;43.016;25.784;2023-03-03T11:29:12;100053.22;;;11.83;69.16
9523;BME280;63165;43.016;25.784;2023-03-03T11:31:46;100056.69;;;11.85;69.30
9523;BME280;63165;43.016;25.784;2023-03-03T11:34:26;100058.44;;;11.85;69.12
9523;BME280;63165;43.016;25.784;2023-03-03T11:37:00;100047.13;;;11.83;69.80
9523;BME280;63165;43.016;25.784;2023-03-03T11:39:29;100051.44;;;11.85;69.17
9523;BME280;63165;43.016;25.784;2023-03-03T11:42:02;100048.06;;;11.80;68.99
9523;BME280;63165;43.016;25.784;2023-03-03T11:44:36;100045.44;;;11.80;68.59
9523;BME280;63165;43.016;25.784;2023-03-03T11:47:10;100049.91;;;11.75;68.19
9523;BME280;63165;43.016;25.784;2023-03-03T11:49:46;100040.47;;;11.66;68.03
9523;BME280;63165;43.016;25.784;2023-03-03T11:52:27;100037.88;;;11.66;68.16
9523;BME280;63165;43.016;25.784;2023-03-03T11:55:01;100038.00;;;11.60;68.30
9523;BME280;63165;43.016;25.784;2023-03-03T11:57:35;100045.06;;;11.57;69.40
9523;BME280;63165;43.016;25.784;2023-03-03T12:00:20;100039.06;;;11.52;69.77
9523;BME280;63165;43.016;25.784;2023-03-03T12:02:58;100029.69;;;11.40;69.61
9523;BME280;63165;43.016;25.784;2023-03-03T12:05:37;100028.06;;;11.34;69.03
9523;BME280;63165;43.016;25.784;2023-03-03T12:08:17;100033.31;;;11.33;69.71
9523;BME280;63165;43.016;25.784;2023-03-03T12:10:49;100009.91;;;11.25;70.27
9523;BME280;63165;43.016;25.784;2023-03-03T12:13:24;100015.94;;;11.29;71.09
9523;BME280;63165;43.016;25.784;2023-03-03T12:15:59;100030.69;;;11.34;71.01
9523;BME280;63165;43.016;25.784;2023-03-03T12:18:45;100034.97;;;11.37;71.39
9523;BME280;63165;43.016;25.784;2023-03-03T12:21:33;100035.91;;;11.34;71.21
9523;BME280;63165;43.016;25.784;2023-03-03T12:24:33;100043.00;;;11.29;69.85
9523;BME280;63165;43.016;25.784;2023-03-03T12:27:13;100033.59;;;11.20;70.59
9523;BME280;63165;43.016;25.784;2023-03-03T12:29:51;100037.09;;;11.18;70.41
9523;BME280;63165;43.016;25.784;2023-03-03T12:32:31;100051.13;;;11.15;70.12
9523;BME280;63165;43.016;25.784;2023-03-03T12:35:09;100051.28;;;11.07;70.24
9523;BME280;63165;43.016;25.784;2023-03-03T12:37:47;100058.38;;;11.01;70.75
9523;BME280;63165;43.016;25.784;2023-03-03T12:40:24;100052.31;;;10.97;70.34
9523;BME280;63165;43.016;25.784;2023-03-03T12:45:55;100057.75;;;10.86;71.05
9523;BME280;63165;43.016;25.784;2023-03-03T12:48:35;100060.47;;;10.82;71.33
9523;BME280;63165;43.016;25.784;2023-03-03T12:51:12;100055.38;;;10.74;71.83
9523;BME280;63165;43.016;25.784;2023-03-03T12:53:50;100052.78;;;10.73;72.47
9523;BME280;63165;43.016;25.784;2023-03-03T12:56:26;100051.09;;;10.68;72.05
9523;BME280;63165;43.016;25.784;2023-03-03T12:59:03;100052.09;;;10.60;72.46
9523;BME280;63165;43.016;25.784;2023-03-03T13:01:55;100052.19;;;10.57;72.57
9523;BME280;63165;43.016;25.784;2023-03-03T13:04:34;100046.22;;;10.47;72.71
9523;BME280;63165;43.016;25.784;2023-03-03T13:07:07;100054.91;;;10.49;73.18
9523;BME280;63165;43.016;25.784;2023-03-03T13:10:02;100054.97;;;10.46;73.36
9523;BME280;63165;43.016;25.784;2023-03-03T13:12:38;100049.03;;;10.35;73.51
9523;BME280;63165;43.016;25.784;2023-03-03T13:15:14;100050.69;;;10.40;73.89
9523;BME280;63165;43.016;25.784;2023-03-03T13:18:02;100042.16;;;10.26;73.82
9523;BME280;63165;43.016;25.784;2023-03-03T13:20:42;100058.69;;;10.28;73.89
9523;BME280;63165;43.016;25.784;2023-03-03T13:23:19;100052.63;;;10.24;74.92
9523;BME280;63165;43.016;25.784;2023-03-03T13:25:57;100041.47;;;10.13;75.09
9523;BME280;63165;43.016;25.784;2023-03-03T13:28:31;100053.69;;;10.14;75.41
9523;BME280;63165;43.016;25.784;2023-03-03T13:31:04;100054.53;;;10.15;76.06